Portada
METAR-TAF:

METAR-TAF

Aeropuertos :

Ghriss, Argelia

latitud: 35-12N, longitud: 000-08E, altitud: 514 m

Observación

El informe se hizo hace 1 hora y 14 minutos, a las 21:00 UTC
Viento 5 kt del norte
Temperatura 16°C
Humedad 63%
Presión 1020 hPa
Visibilidad 10 km o más
sin nubes por debajo de 1500 m y sin presencia de cumulonimbus.

METAR: DAOV 162100Z 01005KT CAVOK 16/09 Q1020

Hora: 23:14 (22:14 UTC)

Pronóstico

El informe se hizo hace 5 horas y 14 minutos, a las 17:00 UTC
Pronóstico válido del 16 a las 18 UTC al 17 a las 03 UTC
Viento 11 kt del norte
Visibilidad 10 km o más
Escasas nubes a una altura de 3000 ft
Evolucionando progresivamente
del 16 a las 21 UTC al 16 a las 23 UTC
Viento 2 kt con dirección variable

TAF: DAOV 161700Z 1618/1703 36011KT 9999 FEW030 BECMG 1621/1623 VRB02KT

Observaciones y pronósticos meteorológicos de más de 4000 aeropuertos (mensajes METAR y TAF).

Los puntos amarillos y rojos representan las estaciones disponibles.

Ponga el ratón en el punto deseado para ver el nombre de la estación.

Haga clic para ver las observaciones y los pronósticos meteorológicos.

Para cambiar el mapa : haga clic en los botones verdes con una cruz de color negro para hacer un zoom, en el botón verde con un guión para alejar o en las flechas verdes para mapas adyacentes.


METAR-TAF: